createdAt,value
2023-03-17T00:00:06.635Z,89.70
2023-03-17T00:03:11.975Z,77.70
2023-03-17T00:05:48.281Z,84.90
2023-03-17T00:08:29.654Z,83.90
2023-03-17T00:11:08.287Z,83.70
2023-03-17T00:13:46.280Z,85.60
2023-03-17T00:16:28.232Z,90.30
2023-03-17T00:21:42.191Z,74.50
2023-03-17T00:24:19.302Z,83.70
2023-03-17T00:26:55.531Z,83.50
2023-03-17T00:29:32.461Z,83.80
2023-03-17T00:32:16.735Z,85.50
2023-03-17T00:34:54.463Z,88.50
2023-03-17T00:37:31.398Z,92.50
2023-03-17T00:40:15.909Z,85.70
2023-03-17T00:42:53.893Z,91.40
2023-03-17T00:45:32.401Z,97.80
2023-03-17T00:48:18.797Z,89.90
2023-03-17T00:50:56.096Z,90.10
2023-03-17T00:53:32.845Z,89.70
2023-03-17T00:56:16.812Z,91.70
2023-03-17T00:58:53.454Z,90.90
2023-03-17T01:01:30.235Z,100.60
2023-03-17T01:04:11.171Z,96.10
2023-03-17T01:09:27.915Z,91.50
2023-03-17T01:12:04.743Z,90.20
2023-03-17T01:14:42.131Z,101.10
2023-03-17T01:17:23.084Z,105.50
2023-03-17T01:19:59.779Z,92.70
2023-03-17T01:22:36.476Z,94.60
2023-03-17T01:25:15.248Z,98.30
2023-03-17T01:27:52.265Z,106.40
2023-03-17T01:30:34.747Z,95.70
2023-03-17T01:33:15.834Z,100.70
2023-03-17T01:35:53.608Z,98.70
2023-03-17T01:38:29.984Z,110.40
2023-03-17T01:41:06.784Z,102.50
2023-03-17T01:43:44.164Z,88.60
2023-03-17T01:46:34.951Z,97.40
2023-03-17T01:49:24.008Z,103.50
2023-03-17T01:52:09.432Z,106.60
2023-03-17T01:54:51.494Z,90.60
2023-03-17T01:57:37.580Z,89.80
2023-03-17T02:00:23.713Z,99.90
2023-03-17T02:03:02.247Z,101.00
2023-03-17T02:05:40.103Z,85.10
2023-03-17T02:08:19.305Z,92.70
2023-03-17T02:10:57.503Z,95.00
2023-03-17T02:13:35.061Z,104.10
2023-03-17T02:16:19.032Z,92.40
2023-03-17T02:18:56.738Z,86.10
2023-03-17T02:21:47.717Z,93.90
2023-03-17T02:24:34.801Z,88.20
2023-03-17T02:27:19.639Z,92.70
2023-03-17T02:29:56.980Z,88.00
2023-03-17T02:32:36.080Z,89.20
2023-03-17T02:35:14.292Z,87.90
2023-03-17T02:37:52.169Z,93.50
2023-03-17T02:40:30.536Z,84.00
2023-03-17T02:43:07.223Z,88.40
2023-03-17T02:45:43.530Z,87.90
2023-03-17T02:48:22.882Z,86.00
2023-03-17T02:50:59.203Z,90.50
2023-03-17T02:53:35.575Z,81.90
2023-03-17T02:56:13.551Z,80.40
2023-03-17T02:58:49.931Z,80.90
2023-03-17T03:01:27.124Z,83.60
2023-03-17T03:04:04.042Z,70.80
2023-03-17T03:06:42.668Z,78.20
2023-03-17T03:09:19.437Z,86.80
2023-03-17T03:11:55.816Z,84.70
2023-03-17T03:14:32.565Z,76.50
2023-03-17T03:17:09.341Z,79.70
2023-03-17T03:19:46.080Z,76.60
2023-03-17T03:22:22.415Z,76.00
2023-03-17T03:24:58.965Z,84.40
2023-03-17T03:27:36.157Z,73.00
2023-03-17T03:30:16.115Z,72.80
2023-03-17T03:32:52.992Z,74.10
2023-03-17T03:35:29.878Z,74.60
2023-03-17T03:38:06.166Z,86.40
2023-03-17T03:40:42.692Z,79.60
2023-03-17T03:43:23.275Z,78.10
2023-03-17T03:46:00.114Z,80.30
2023-03-17T03:48:36.602Z,80.90
2023-03-17T03:51:13.229Z,77.80
2023-03-17T03:53:50.052Z,83.80
2023-03-17T03:56:27.190Z,79.70
2023-03-17T03:59:04.276Z,80.80
2023-03-17T04:01:41.767Z,74.70
2023-03-17T04:04:18.249Z,90.40
2023-03-17T04:06:54.672Z,87.20
2023-03-17T04:09:31.144Z,77.50
2023-03-17T04:12:09.467Z,82.20
2023-03-17T04:14:46.192Z,82.60
2023-03-17T04:17:22.439Z,80.30
2023-03-17T04:19:58.700Z,96.00
2023-03-17T04:22:34.945Z,98.30
2023-03-17T04:25:14.721Z,88.20
2023-03-17T04:27:51.233Z,103.30
2023-03-17T04:30:27.802Z,106.10
2023-03-17T04:33:04.568Z,112.50
2023-03-17T04:35:41.794Z,116.60
2023-03-17T04:38:19.153Z,110.00
2023-03-17T04:40:55.745Z,107.30
2023-03-17T04:43:32.059Z,110.20
2023-03-17T04:46:08.677Z,116.20
2023-03-17T04:48:45.123Z,126.70
2023-03-17T04:51:21.913Z,124.50
2023-03-17T04:53:58.372Z,113.30
2023-03-17T04:56:34.736Z,108.80
2023-03-17T04:59:11.906Z,127.00
2023-03-17T05:01:48.289Z,118.40
2023-03-17T05:04:31.538Z,123.20
2023-03-17T05:07:08.963Z,115.00
2023-03-17T05:09:45.202Z,123.90
2023-03-17T05:12:22.109Z,118.20
2023-03-17T05:14:58.824Z,122.80
2023-03-17T05:17:35.188Z,122.20
2023-03-17T05:20:15.672Z,127.10
2023-03-17T05:22:51.998Z,122.60
2023-03-17T05:25:28.374Z,125.70
2023-03-17T05:28:04.827Z,118.50
2023-03-17T05:30:41.400Z,114.80
2023-03-17T05:33:18.365Z,105.30
2023-03-17T05:35:55.174Z,97.40
2023-03-17T05:38:31.512Z,100.70
2023-03-17T05:41:08.237Z,93.70
2023-03-17T05:43:44.553Z,80.40
2023-03-17T05:46:21.015Z,87.00
2023-03-17T05:48:57.412Z,92.70
2023-03-17T05:51:35.745Z,83.30
2023-03-17T05:54:13.903Z,68.90
2023-03-17T05:56:50.279Z,62.00
2023-03-17T05:59:26.967Z,56.30
2023-03-17T06:02:03.290Z,43.80
2023-03-17T06:04:40.411Z,44.50
2023-03-17T06:07:17.516Z,44.60
2023-03-17T06:09:53.905Z,46.70
2023-03-17T06:12:30.328Z,46.60
2023-03-17T06:15:09.735Z,42.40
2023-03-17T06:17:46.953Z,42.00
2023-03-17T06:20:23.790Z,44.20
2023-03-17T06:23:04.530Z,45.50
2023-03-17T06:25:41.711Z,41.10
2023-03-17T06:28:18.659Z,43.30
2023-03-17T06:30:54.946Z,49.50
2023-03-17T06:33:31.291Z,47.20
2023-03-17T06:36:08.941Z,45.40
2023-03-17T06:38:46.274Z,53.80
2023-03-17T06:41:22.794Z,52.90
2023-03-17T06:43:59.108Z,56.20
2023-03-17T06:46:36.130Z,62.90
2023-03-17T06:49:13.785Z,58.80
2023-03-17T06:51:50.434Z,54.70
2023-03-17T06:54:27.462Z,58.80
2023-03-17T06:57:04.250Z,59.00
2023-03-17T06:59:41.812Z,54.10
2023-03-17T07:02:21.354Z,61.10
2023-03-17T07:04:59.144Z,47.70
2023-03-17T07:07:36.834Z,59.80
2023-03-17T07:10:17.327Z,44.60
2023-03-17T07:12:53.999Z,41.00
2023-03-17T07:15:32.118Z,36.30
2023-03-17T07:18:09.958Z,38.80
2023-03-17T07:20:46.910Z,38.40
2023-03-17T07:23:26.257Z,37.80
2023-03-17T07:26:03.289Z,38.00
2023-03-17T07:28:40.420Z,36.30
2023-03-17T07:31:16.944Z,35.90
2023-03-17T07:33:56.291Z,47.50
2023-03-17T07:36:33.490Z,36.20
2023-03-17T07:39:12.106Z,33.40
2023-03-17T07:41:53.110Z,31.20
2023-03-17T07:44:30.603Z,33.40
2023-03-17T07:47:07.427Z,32.90
2023-03-17T07:49:43.949Z,29.10
2023-03-17T07:52:21.808Z,26.30
2023-03-17T07:54:58.747Z,27.00
2023-03-17T07:57:35.159Z,28.30
2023-03-17T08:00:17.287Z,34.40
2023-03-17T08:03:08.966Z,30.20
2023-03-17T08:05:47.339Z,24.90
2023-03-17T08:08:24.114Z,30.20
2023-03-17T08:11:07.856Z,31.90
2023-03-17T08:13:44.102Z,30.00
2023-03-17T08:16:20.520Z,34.20
2023-03-17T08:18:58.831Z,28.20
2023-03-17T08:21:35.688Z,30.10
2023-03-17T08:24:12.666Z,26.00
2023-03-17T08:26:53.268Z,23.80
2023-03-17T08:29:30.594Z,26.80
2023-03-17T08:32:08.565Z,31.30
2023-03-17T08:34:46.256Z,27.50
2023-03-17T08:37:23.103Z,25.50
2023-03-17T08:40:01.483Z,29.40
2023-03-17T08:42:38.990Z,25.10
2023-03-17T08:45:18.458Z,24.70
2023-03-17T08:47:54.903Z,24.70
2023-03-17T08:50:31.684Z,24.30
2023-03-17T08:53:08.952Z,27.00
2023-03-17T08:55:45.415Z,24.10
2023-03-17T08:58:21.983Z,24.10
2023-03-17T09:01:01.558Z,21.60
2023-03-17T09:03:39.645Z,25.40
2023-03-17T09:06:16.628Z,24.10
2023-03-17T09:08:55.715Z,23.50
2023-03-17T09:11:33.995Z,24.70
2023-03-17T09:14:11.548Z,21.80
2023-03-17T09:16:48.941Z,21.40
2023-03-17T09:19:25.705Z,22.30
2023-03-17T09:22:03.252Z,23.40
2023-03-17T09:24:39.853Z,24.10
2023-03-17T09:27:16.910Z,20.20
2023-03-17T09:29:53.581Z,17.30
2023-03-17T09:32:29.987Z,21.00
2023-03-17T09:35:07.581Z,17.90
2023-03-17T09:37:44.068Z,12.90
2023-03-17T09:40:32.669Z,12.60
2023-03-17T09:43:26.055Z,13.00
2023-03-17T09:46:18.987Z,9.40
2023-03-17T09:49:08.608Z,9.50
2023-03-17T09:51:47.997Z,9.10
2023-03-17T09:54:34.421Z,10.80
2023-03-17T09:57:22.727Z,10.70
2023-03-17T10:00:14.696Z,9.60
2023-03-17T10:02:52.111Z,15.10
2023-03-17T10:05:33.489Z,10.90
2023-03-17T10:08:30.756Z,7.90
2023-03-17T10:11:20.815Z,10.10
2023-03-17T10:14:06.222Z,12.90
2023-03-17T10:16:56.730Z,8.40
2023-03-17T10:19:42.384Z,10.20
2023-03-17T10:22:29.743Z,9.80
2023-03-17T10:25:18.401Z,10.30
2023-03-17T10:28:09.118Z,9.40
2023-03-17T10:30:45.888Z,6.90
2023-03-17T10:33:23.075Z,10.10
2023-03-17T10:36:09.198Z,8.40
2023-03-17T10:38:54.494Z,10.00
2023-03-17T10:41:36.247Z,8.70
2023-03-17T10:44:44.533Z,7.90
2023-03-17T10:47:38.190Z,8.10
2023-03-17T10:50:28.807Z,10.20
2023-03-17T10:53:11.120Z,12.60
2023-03-17T10:55:55.016Z,8.80
2023-03-17T10:58:45.882Z,13.20
2023-03-17T11:01:31.128Z,9.20
2023-03-17T11:04:27.556Z,7.50
2023-03-17T11:07:11.473Z,7.80
2023-03-17T11:09:51.697Z,8.10
2023-03-17T11:12:36.687Z,6.70
2023-03-17T11:15:20.654Z,7.60
2023-03-17T11:18:04.415Z,8.50
2023-03-17T11:20:55.548Z,8.00
2023-03-17T11:23:51.743Z,8.50
2023-03-17T11:27:12.561Z,8.70
2023-03-17T11:30:20.804Z,8.50
2023-03-17T11:33:05.755Z,6.20
2023-03-17T11:35:55.704Z,7.80
2023-03-17T11:38:36.356Z,10.40
2023-03-17T11:42:03.476Z,9.00
2023-03-17T11:45:27.712Z,13.20
2023-03-17T11:48:22.497Z,9.30
2023-03-17T11:51:11.990Z,10.50
2023-03-17T11:54:12.108Z,11.50
2023-03-17T11:56:52.974Z,8.10
2023-03-17T11:59:42.074Z,8.10
2023-03-17T12:02:30.877Z,8.40
2023-03-17T12:05:13.732Z,6.80
2023-03-17T12:07:58.813Z,7.50
2023-03-17T12:10:44.013Z,7.00
2023-03-17T12:13:26.783Z,8.70
2023-03-17T12:16:11.327Z,9.20
2023-03-17T12:19:08.594Z,7.90
2023-03-17T12:21:53.123Z,9.00
2023-03-17T12:24:38.431Z,10.50
2023-03-17T12:27:23.151Z,11.00
2023-03-17T12:30:09.391Z,9.90
2023-03-17T12:32:55.311Z,9.00
2023-03-17T12:35:39.020Z,11.10
2023-03-17T12:38:26.796Z,8.80
2023-03-17T12:41:37.096Z,6.40
2023-03-17T12:44:33.214Z,7.00
2023-03-17T12:47:50.934Z,7.80
2023-03-17T12:51:17.047Z,8.60
2023-03-17T12:53:55.205Z,8.00
2023-03-17T12:56:35.440Z,11.10
2023-03-17T12:59:19.893Z,9.40
2023-03-17T13:02:18.493Z,10.00
2023-03-17T13:05:01.091Z,9.60
2023-03-17T13:07:47.902Z,9.30
2023-03-17T13:10:48.776Z,9.80
2023-03-17T13:13:46.074Z,9.30
2023-03-17T13:16:39.287Z,10.10
2023-03-17T13:19:32.618Z,7.20
2023-03-17T13:22:41.472Z,8.70
2023-03-17T13:25:36.184Z,9.70
2023-03-17T13:28:45.005Z,7.50
2023-03-17T13:31:44.662Z,8.20
2023-03-17T13:34:22.970Z,8.40
2023-03-17T13:37:23.838Z,9.00
2023-03-17T13:40:26.263Z,8.00
2023-03-17T13:43:37.755Z,8.80
2023-03-17T13:46:42.200Z,8.10
2023-03-17T13:49:36.872Z,6.90
2023-03-17T13:52:25.519Z,7.60
2023-03-17T13:55:35.158Z,8.10
2023-03-17T13:58:54.059Z,8.60
2023-03-17T14:01:35.626Z,9.00
2023-03-17T14:04:22.763Z,7.80
2023-03-17T14:07:06.985Z,9.20
2023-03-17T14:09:47.042Z,7.80
2023-03-17T14:12:34.375Z,9.20
2023-03-17T14:15:19.331Z,8.60
2023-03-17T14:18:02.380Z,7.10
2023-03-17T14:20:39.370Z,8.80
2023-03-17T14:23:16.456Z,8.50
2023-03-17T14:25:55.999Z,9.40
2023-03-17T14:28:36.645Z,7.60
2023-03-17T14:31:28.301Z,7.50
2023-03-17T14:34:13.769Z,6.90
2023-03-17T14:36:52.593Z,6.30
2023-03-17T14:39:30.742Z,8.60
2023-03-17T14:42:09.513Z,6.90
2023-03-17T14:44:46.997Z,8.60
2023-03-17T14:47:28.953Z,8.00
2023-03-17T14:52:42.079Z,7.40
2023-03-17T14:55:20.935Z,8.50
2023-03-17T14:57:58.039Z,13.80
2023-03-17T15:00:59.169Z,6.90
2023-03-17T15:03:41.937Z,6.90
2023-03-17T15:06:31.367Z,6.40
2023-03-17T15:09:26.274Z,9.50
2023-03-17T15:12:14.613Z,7.70
2023-03-17T15:14:54.602Z,6.50
2023-03-17T15:17:36.150Z,6.50
2023-03-17T15:20:20.766Z,6.60
2023-03-17T15:23:05.030Z,6.10
2023-03-17T15:25:46.633Z,5.80
2023-03-17T15:28:26.576Z,7.20
2023-03-17T15:31:16.158Z,8.40
2023-03-17T15:33:52.387Z,8.20
2023-03-17T15:36:32.983Z,6.10
2023-03-17T15:39:11.681Z,7.30
2023-03-17T15:41:47.914Z,9.70
2023-03-17T15:44:24.134Z,7.20
2023-03-17T15:47:00.961Z,6.30
2023-03-17T15:49:37.330Z,7.70
2023-03-17T15:52:25.077Z,9.00
2023-03-17T15:55:04.526Z,9.20
2023-03-17T15:57:42.845Z,6.00
2023-03-17T16:00:30.122Z,9.20
2023-03-17T16:03:18.153Z,8.30
2023-03-17T16:05:54.613Z,7.30
2023-03-17T16:08:31.505Z,7.30
2023-03-17T16:11:10.160Z,8.50
2023-03-17T16:13:46.988Z,13.00
2023-03-17T16:16:38.876Z,12.20
2023-03-17T16:19:24.548Z,8.00
2023-03-17T16:22:01.261Z,12.50
2023-03-17T16:24:38.383Z,6.50
2023-03-17T16:27:19.794Z,9.50
2023-03-17T16:29:56.294Z,9.60
2023-03-17T16:32:32.605Z,7.90
2023-03-17T16:35:16.914Z,7.70
2023-03-17T16:37:54.650Z,8.70
2023-03-17T16:40:39.061Z,9.10
2023-03-17T16:43:26.782Z,8.40
2023-03-17T16:46:06.380Z,10.30
2023-03-17T16:48:42.809Z,10.70
2023-03-17T16:51:19.807Z,10.10
2023-03-17T16:53:56.054Z,12.10
2023-03-17T16:56:33.448Z,12.60
2023-03-17T16:59:17.217Z,10.20
2023-03-17T17:01:54.996Z,10.00
2023-03-17T17:04:34.587Z,8.30
2023-03-17T17:07:11.340Z,10.20
2023-03-17T17:09:47.940Z,10.20
2023-03-17T17:12:24.197Z,11.00
2023-03-17T17:15:00.577Z,10.20
2023-03-17T17:17:38.202Z,11.10
2023-03-17T17:20:23.999Z,16.00
2023-03-17T17:23:02.053Z,12.70
2023-03-17T17:25:38.359Z,13.60
2023-03-17T17:28:18.241Z,13.20
2023-03-17T17:30:56.031Z,10.90
2023-03-17T17:33:32.528Z,12.10
2023-03-17T17:36:16.539Z,12.60
2023-03-17T17:38:53.768Z,13.40
2023-03-17T17:41:32.471Z,13.40
2023-03-17T17:44:09.036Z,15.00
2023-03-17T17:46:45.684Z,18.20
2023-03-17T17:49:22.905Z,20.40
2023-03-17T17:51:59.129Z,22.90
2023-03-17T17:54:35.629Z,24.30
2023-03-17T17:57:14.294Z,22.50
2023-03-17T17:59:50.691Z,30.60
2023-03-17T18:02:27.881Z,21.10
2023-03-17T18:05:06.144Z,23.20
2023-03-17T18:07:43.206Z,25.70
2023-03-17T18:10:25.858Z,23.50
2023-03-17T18:13:02.585Z,23.90
2023-03-17T18:15:39.283Z,23.20
2023-03-17T18:18:15.952Z,26.60
2023-03-17T18:20:53.917Z,27.90
2023-03-17T18:23:30.458Z,21.70
2023-03-17T18:26:08.758Z,21.40
2023-03-17T18:28:45.532Z,21.00
2023-03-17T18:31:27.434Z,21.60
2023-03-17T18:34:12.758Z,23.60
2023-03-17T18:36:51.823Z,25.30
2023-03-17T18:39:29.892Z,26.00
2023-03-17T18:42:07.949Z,24.70
2023-03-17T18:44:45.145Z,25.40
2023-03-17T18:47:24.777Z,23.70
2023-03-17T18:50:01.814Z,24.90
2023-03-17T18:52:41.139Z,32.30
2023-03-17T18:55:19.307Z,32.30
2023-03-17T18:57:56.199Z,38.40
2023-03-17T19:00:33.117Z,33.60
2023-03-17T19:03:10.728Z,33.50
2023-03-17T19:05:48.702Z,31.50
2023-03-17T19:08:25.951Z,31.90
2023-03-17T19:11:02.496Z,25.60
2023-03-17T19:13:39.817Z,30.70
2023-03-17T19:16:18.744Z,26.30
2023-03-17T19:18:56.138Z,24.70
2023-03-17T19:21:33.675Z,33.30
2023-03-17T19:24:12.381Z,40.50
2023-03-17T19:26:49.811Z,43.40
2023-03-17T19:29:27.804Z,48.50
2023-03-17T19:32:04.604Z,34.40
2023-03-17T19:34:42.163Z,42.50
2023-03-17T19:37:18.983Z,31.80
2023-03-17T19:39:55.533Z,30.50
2023-03-17T19:42:32.085Z,33.50
2023-03-17T19:45:11.105Z,32.30
2023-03-17T19:47:47.493Z,29.70
2023-03-17T19:50:25.015Z,35.40
2023-03-17T19:53:01.480Z,35.60
2023-03-17T19:55:41.571Z,33.60
2023-03-17T19:58:18.126Z,33.70
2023-03-17T20:00:55.472Z,33.20
2023-03-17T20:03:33.552Z,33.90
2023-03-17T20:06:10.862Z,33.90
2023-03-17T20:08:48.004Z,29.20
2023-03-17T20:11:24.732Z,33.10
2023-03-17T20:14:02.104Z,29.00
2023-03-17T20:16:40.369Z,26.90
2023-03-17T20:19:18.268Z,25.80
2023-03-17T20:21:55.181Z,30.90
2023-03-17T20:24:31.871Z,27.00
2023-03-17T20:27:10.818Z,30.80
2023-03-17T20:29:48.961Z,25.90
2023-03-17T20:32:27.708Z,25.70
2023-03-17T20:35:07.841Z,28.90
2023-03-17T20:37:45.241Z,25.20
2023-03-17T20:40:22.751Z,26.50
2023-03-17T20:42:59.857Z,21.80
2023-03-17T20:45:37.150Z,23.30
2023-03-17T20:48:14.659Z,26.00
2023-03-17T20:50:54.949Z,23.10
2023-03-17T20:53:31.735Z,25.30
2023-03-17T20:56:10.338Z,29.40
2023-03-17T20:58:48.619Z,28.80
2023-03-17T21:01:25.881Z,23.40
2023-03-17T21:04:05.884Z,24.90
2023-03-17T21:06:42.953Z,23.70
2023-03-17T21:09:19.265Z,26.60
2023-03-17T21:11:55.516Z,28.40
2023-03-17T21:14:31.930Z,26.50
2023-03-17T21:17:08.589Z,25.00
2023-03-17T21:19:48.261Z,28.50
2023-03-17T21:22:24.898Z,26.60
2023-03-17T21:25:02.502Z,31.30
2023-03-17T21:27:41.487Z,53.40
2023-03-17T21:30:19.854Z,29.70
2023-03-17T21:32:56.418Z,27.70
2023-03-17T21:35:35.655Z,30.70
2023-03-17T21:38:12.616Z,23.80
2023-03-17T21:40:49.183Z,30.60
2023-03-17T21:43:26.132Z,29.00
2023-03-17T21:46:02.483Z,28.30
2023-03-17T21:48:38.893Z,29.10
2023-03-17T21:51:15.199Z,27.00
2023-03-17T21:53:52.700Z,26.70
2023-03-17T21:56:29.960Z,29.20
2023-03-17T21:59:06.735Z,28.60
2023-03-17T22:01:43.845Z,22.00
2023-03-17T22:04:20.469Z,24.70
2023-03-17T22:06:59.005Z,29.50
2023-03-17T22:09:36.134Z,28.80
2023-03-17T22:12:13.928Z,25.50
2023-03-17T22:14:50.250Z,33.20
2023-03-17T22:17:27.214Z,25.20
2023-03-17T22:20:04.044Z,24.10
2023-03-17T22:22:40.562Z,23.80
2023-03-17T22:25:17.333Z,24.80
2023-03-17T22:27:54.524Z,26.70
2023-03-17T22:30:31.406Z,26.50
2023-03-17T22:33:08.653Z,28.00
2023-03-17T22:35:45.201Z,26.00
2023-03-17T22:38:24.292Z,25.20
2023-03-17T22:41:11.022Z,25.80
2023-03-17T22:43:48.205Z,29.20
2023-03-17T22:46:25.663Z,28.20
2023-03-17T22:49:02.241Z,25.80
2023-03-17T22:51:41.316Z,25.40
2023-03-17T22:54:18.836Z,25.20
2023-03-17T22:56:55.132Z,25.00
2023-03-17T22:59:31.761Z,26.60
2023-03-17T23:02:08.784Z,25.50
2023-03-17T23:04:45.655Z,30.70
2023-03-17T23:07:22.936Z,23.30
2023-03-17T23:09:59.915Z,25.30
2023-03-17T23:12:36.390Z,28.60
2023-03-17T23:15:14.729Z,25.70
2023-03-17T23:17:52.093Z,28.10
2023-03-17T23:20:29.287Z,26.70
2023-03-17T23:23:05.687Z,30.40
2023-03-17T23:25:42.854Z,30.80
2023-03-17T23:28:20.132Z,23.50
2023-03-17T23:30:57.586Z,26.70
2023-03-17T23:33:34.170Z,25.30
2023-03-17T23:36:14.224Z,26.80
2023-03-17T23:38:52.453Z,30.50
2023-03-17T23:41:29.749Z,29.30
2023-03-17T23:44:06.692Z,26.50
2023-03-17T23:46:45.178Z,27.60
2023-03-17T23:49:22.192Z,28.90
2023-03-17T23:51:58.993Z,26.10
2023-03-17T23:54:35.301Z,22.10
2023-03-17T23:57:12.296Z,27.20
2023-03-17T23:59:48.842Z,24.30
